Time;durP1;ratioP1;P1;durP2;ratioP2;P2;SDS_P1;SDS_P2;PMS_P1;PMS_P2;Temp;Humidity;BMP_temperature;BMP_pressure;BME280_temperature;BME280_humidity;BME280_pressure;Samples;Min_cycle;Max_cycle;Signal;HPM_P1;HPM_P2
2021/12/09 00:00:20;;;;;;;7.53;3.53;;;2.70;91.40;;;;;;5069323;28;20526;-72
2021/12/09 00:02:46;;;;;;;12.10;4.32;;;2.70;91.40;;;;;;5070844;28;20020;-73
2021/12/09 00:05:16;;;;;;;13.90;4.55;;;2.70;91.40;;;;;;5072885;28;20032;-73
2021/12/09 00:07:43;;;;;;;8.20;4.80;;;2.60;91.50;;;;;;5068823;28;20085;-72
2021/12/09 00:10:11;;;;;;;11.73;4.90;;;2.50;91.50;;;;;;5070477;28;20064;-72
2021/12/09 00:12:37;;;;;;;9.43;4.68;;;2.50;91.50;;;;;;5070025;28;20500;-73
2021/12/09 00:15:05;;;;;;;8.32;4.18;;;2.50;91.40;;;;;;5069569;28;20060;-73
2021/12/09 00:17:31;;;;;;;10.00;4.07;;;2.40;91.50;;;;;;5072329;28;20039;-72
2021/12/09 00:19:57;;;;;;;9.15;4.00;;;2.40;91.90;;;;;;5068637;28;20032;-73
2021/12/09 00:22:23;;;;;;;7.63;4.07;;;2.40;91.60;;;;;;5067991;28;20476;-72
2021/12/09 00:24:48;;;;;;;11.32;4.20;;;2.40;91.60;;;;;;5068186;28;20152;-73
2021/12/09 00:27:14;;;;;;;10.20;4.45;;;2.40;91.60;;;;;;5068372;28;20029;-73
2021/12/09 00:29:40;;;;;;;9.15;3.80;;;2.40;91.60;;;;;;5071987;28;20055;-73
2021/12/09 00:32:06;;;;;;;8.15;3.20;;;2.40;91.70;;;;;;5069121;28;20048;-72
2021/12/09 00:34:35;;;;;;;9.00;3.70;;;2.40;91.70;;;;;;5068805;28;20020;-73
2021/12/09 00:37:50;;;;;;;7.93;3.50;;;2.40;91.70;;;;;;5068182;28;20075;-73
2021/12/09 00:39:57;;;;;;;9.52;3.58;;;2.30;91.80;;;;;;5065716;28;20098;-72
2021/12/09 00:42:25;;;;;;;10.05;3.70;;;2.30;91.70;;;;;;5068293;28;20025;-72
2021/12/09 00:44:52;;;;;;;7.22;3.30;;;2.30;91.70;;;;;;5070528;28;20050;-72
2021/12/09 00:47:18;;;;;;;9.20;3.30;;;2.30;91.80;;;;;;5070051;28;20028;-73
2021/12/09 00:49:44;;;;;;;7.35;2.92;;;2.30;91.80;;;;;;5077142;28;20081;-72
2021/12/09 00:52:10;;;;;;;8.40;2.75;;;2.30;91.80;;;;;;5068486;28;20032;-73
2021/12/09 00:54:36;;;;;;;8.95;2.78;;;2.30;91.80;;;;;;5071042;28;20545;-73
2021/12/09 00:57:02;;;;;;;10.38;2.65;;;2.30;91.80;;;;;;5068655;28;20087;-73
2021/12/09 00:59:28;;;;;;;10.32;3.08;;;2.30;91.80;;;;;;5071485;28;20107;-73
2021/12/09 01:01:54;;;;;;;7.28;2.50;;;2.30;91.70;;;;;;5066660;28;20125;-72
2021/12/09 01:04:20;;;;;;;7.80;2.58;;;2.20;91.70;;;;;;5069086;28;20414;-73
2021/12/09 01:06:47;;;;;;;9.68;2.75;;;2.20;91.70;;;;;;5063639;28;20028;-72
2021/12/09 01:09:13;;;;;;;7.80;2.80;;;2.20;91.70;;;;;;5071949;28;20415;-73
2021/12/09 01:11:38;;;;;;;6.88;2.58;;;2.20;91.80;;;;;;5069999;28;20044;-73
2021/12/09 01:14:04;;;;;;;7.43;2.28;;;2.20;91.90;;;;;;5068164;28;20028;-73
2021/12/09 01:16:30;;;;;;;8.77;2.40;;;2.20;92.00;;;;;;5067398;28;20059;-73
2021/12/09 01:18:57;;;;;;;7.72;2.72;;;2.20;92.00;;;;;;5067465;28;20033;-72
2021/12/09 01:21:22;;;;;;;7.60;2.60;;;2.20;92.00;;;;;;5066013;28;20824;-73
2021/12/09 01:23:48;;;;;;;11.55;2.65;;;2.20;92.00;;;;;;5069143;28;20020;-72
2021/12/09 01:26:14;;;;;;;9.05;2.13;;;2.20;92.00;;;;;;5067698;28;20024;-72
2021/12/09 01:28:53;;;;;;;7.88;2.40;;;2.20;92.10;;;;;;5069832;28;20078;-72
2021/12/09 01:31:27;;;;;;;8.95;2.92;;;2.20;92.00;;;;;;5066945;28;20024;-72
2021/12/09 01:33:59;;;;;;;6.40;2.47;;;2.20;92.00;;;;;;5066472;28;20028;-73
2021/12/09 01:36:25;;;;;;;6.18;2.00;;;2.20;92.00;;;;;;5067125;28;20499;-72
2021/12/09 01:38:50;;;;;;;5.95;2.20;;;2.20;92.00;;;;;;5067782;28;20031;-71
2021/12/09 01:41:16;;;;;;;7.85;2.38;;;2.20;92.00;;;;;;5071071;28;20541;-72
2021/12/09 01:43:43;;;;;;;9.23;2.50;;;2.20;92.10;;;;;;5068577;28;20017;-72
2021/12/09 01:46:11;;;;;;;10.88;2.40;;;2.10;92.00;;;;;;5067160;28;20142;-72
2021/12/09 01:48:39;;;;;;;6.90;2.22;;;2.10;92.10;;;;;;5067242;28;20540;-72
2021/12/09 01:51:06;;;;;;;6.97;2.67;;;2.10;92.00;;;;;;5065906;28;20112;-72
2021/12/09 01:53:32;;;;;;;10.05;2.20;;;2.10;92.00;;;;;;5070421;28;20182;-72
2021/12/09 01:56:00;;;;;;;4.97;2.20;;;2.10;92.00;;;;;;5066252;28;20033;-72
2021/12/09 01:58:26;;;;;;;7.47;2.70;;;2.10;92.10;;;;;;5067599;28;20143;-72
2021/12/09 02:00:53;;;;;;;7.10;2.63;;;2.10;92.00;;;;;;5067069;28;20027;-72
2021/12/09 02:03:18;;;;;;;8.30;2.88;;;2.10;92.10;;;;;;5066737;28;20365;-73
2021/12/09 02:05:45;;;;;;;6.10;2.78;;;2.10;92.10;;;;;;5068897;28;20028;-73
2021/12/09 02:08:13;;;;;;;6.75;2.67;;;2.00;92.00;;;;;;5067636;28;20043;-71
2021/12/09 02:10:42;;;;;;;8.10;2.60;;;2.00;92.10;;;;;;5066422;28;20075;-72
2021/12/09 02:13:08;;;;;;;8.35;2.50;;;2.00;92.10;;;;;;5068944;28;20021;-72
2021/12/09 02:15:35;;;;;;;7.68;2.30;;;2.00;92.70;;;;;;5066541;28;20403;-72
2021/12/09 02:18:04;;;;;;;8.20;2.20;;;2.00;92.20;;;;;;5067660;28;20450;-72
2021/12/09 02:20:34;;;;;;;6.50;2.30;;;2.00;92.20;;;;;;5069570;28;20510;-72
2021/12/09 02:23:00;;;;;;;6.82;2.30;;;2.00;92.20;;;;;;5067322;28;20024;-72
2021/12/09 02:25:26;;;;;;;6.80;2.30;;;2.00;92.20;;;;;;5066497;28;20017;-72
2021/12/09 02:27:52;;;;;;;7.93;2.10;;;1.90;92.10;;;;;;5068527;28;20035;-73
2021/12/09 02:30:18;;;;;;;7.57;2.15;;;1.90;92.10;;;;;;5066257;28;20108;-72
2021/12/09 02:32:46;;;;;;;6.30;2.10;;;1.90;92.10;;;;;;5069016;28;20032;-72
2021/12/09 02:35:12;;;;;;;6.13;2.10;;;1.90;92.10;;;;;;5068909;28;20502;-72
2021/12/09 02:37:38;;;;;;;7.32;2.17;;;1.90;92.10;;;;;;5068963;28;20470;-73
2021/12/09 02:40:06;;;;;;;7.10;2.47;;;1.80;92.10;;;;;;5065487;28;20475;-73
2021/12/09 02:42:34;;;;;;;5.43;2.03;;;1.90;92.20;;;;;;5063610;28;20025;-72
2021/12/09 02:45:00;;;;;;;7.32;2.00;;;1.80;92.20;;;;;;5068102;28;25419;-73
2021/12/09 02:47:26;;;;;;;7.88;2.25;;;1.90;92.20;;;;;;5067581;28;20019;-72
2021/12/09 02:49:52;;;;;;;8.75;2.58;;;1.90;92.20;;;;;;5065367;28;20095;-72
2021/12/09 02:52:19;;;;;;;6.88;2.08;;;1.80;92.20;;;;;;5064297;28;20037;-72
2021/12/09 02:54:45;;;;;;;8.70;2.40;;;1.80;92.20;;;;;;5067557;28;20023;-72
2021/12/09 02:57:11;;;;;;;6.85;2.10;;;1.80;92.20;;;;;;5053117;28;20111;-72
2021/12/09 02:59:37;;;;;;;8.82;2.83;;;1.80;92.10;;;;;;5068147;28;20139;-72
2021/12/09 03:02:05;;;;;;;8.50;2.45;;;1.80;92.20;;;;;;5066538;28;20032;-72
2021/12/09 03:04:52;;;;;;;10.57;2.55;;;1.70;92.20;;;;;;5065374;28;20466;-72
2021/12/09 03:07:31;;;;;;;11.77;2.70;;;1.80;92.30;;;;;;5050732;28;20108;-72
2021/12/09 03:10:20;;;;;;;7.88;2.80;;;1.80;92.30;;;;;;5067167;28;20052;-72
2021/12/09 03:12:49;;;;;;;12.27;2.85;;;1.70;92.30;;;;;;5065791;28;20035;-72
2021/12/09 03:15:16;;;;;;;10.88;3.10;;;1.70;92.30;;;;;;5065240;28;20025;-72
2021/12/09 03:17:43;;;;;;;9.52;3.00;;;1.70;92.40;;;;;;5080066;28;20055;-72
2021/12/09 03:20:10;;;;;;;9.65;2.85;;;1.70;92.40;;;;;;5067210;28;20513;-72
2021/12/09 03:22:37;;;;;;;10.27;2.65;;;1.70;92.30;;;;;;5064534;28;20032;-72
2021/12/09 03:25:05;;;;;;;9.60;3.13;;;1.70;92.30;;;;;;5065535;28;20394;-72
2021/12/09 03:27:31;;;;;;;10.52;3.60;;;1.70;92.30;;;;;;5066294;28;20037;-71
2021/12/09 03:29:57;;;;;;;14.98;4.93;;;1.70;92.30;;;;;;5066733;28;20115;-72
2021/12/09 03:32:23;;;;;;;13.02;4.43;;;1.70;92.30;;;;;;5069684;28;20035;-72
2021/12/09 03:34:49;;;;;;;10.27;3.13;;;1.60;92.30;;;;;;5071336;28;20032;-72
2021/12/09 03:37:19;;;;;;;9.95;3.78;;;1.60;92.20;;;;;;5070596;28;20033;-72
2021/12/09 03:39:45;;;;;;;9.05;2.85;;;1.60;92.30;;;;;;5068219;28;20021;-72
2021/12/09 03:42:14;;;;;;;9.63;2.90;;;1.60;92.20;;;;;;5070352;28;20043;-71
2021/12/09 03:44:41;;;;;;;8.57;2.50;;;1.60;92.30;;;;;;5072327;28;20032;-72
2021/12/09 03:47:10;;;;;;;6.88;2.72;;;1.50;92.20;;;;;;5069764;28;20029;-72
2021/12/09 03:49:37;;;;;;;8.13;3.10;;;1.50;92.30;;;;;;5070418;28;20017;-71
2021/12/09 03:52:04;;;;;;;7.18;2.60;;;1.50;92.40;;;;;;5069399;28;20044;-72
2021/12/09 03:54:31;;;;;;;9.50;2.63;;;1.50;92.40;;;;;;5071104;28;20036;-72
2021/12/09 03:56:57;;;;;;;11.68;2.97;;;1.50;92.40;;;;;;5070506;28;20028;-71
2021/12/09 03:59:23;;;;;;;8.30;2.88;;;1.60;92.50;;;;;;5071780;28;20086;-72
2021/12/09 04:01:49;;;;;;;7.07;2.42;;;1.60;92.50;;;;;;5069989;28;20024;-72
2021/12/09 04:04:16;;;;;;;9.02;2.55;;;1.50;92.40;;;;;;5069369;28;20021;-72
2021/12/09 04:06:42;;;;;;;9.80;2.75;;;1.50;92.40;;;;;;5064728;28;20021;-72
2021/12/09 04:09:10;;;;;;;10.40;3.10;;;1.50;92.40;;;;;;5069264;28;20021;-72
2021/12/09 04:11:36;;;;;;;7.07;2.70;;;1.50;92.40;;;;;;5071377;28;20060;-72
2021/12/09 04:14:03;;;;;;;10.20;3.00;;;1.40;92.30;;;;;;5068799;28;20130;-72
2021/12/09 04:16:30;;;;;;;12.00;3.80;;;1.40;92.30;;;;;;5069540;28;20556;-73
2021/12/09 04:18:56;;;;;;;9.88;3.42;;;1.40;92.40;;;;;;5067916;28;20043;-72
2021/12/09 04:21:22;;;;;;;14.35;4.35;;;1.40;92.30;;;;;;5068182;28;20058;-72
2021/12/09 04:23:47;;;;;;;11.48;3.50;;;1.40;92.40;;;;;;5070113;28;20025;-73
2021/12/09 04:26:13;;;;;;;9.05;3.50;;;1.40;92.80;;;;;;5071274;28;20040;-72
2021/12/09 04:28:40;;;;;;;9.13;3.10;;;1.40;92.80;;;;;;5068818;28;20040;-73
2021/12/09 04:31:06;;;;;;;12.40;3.92;;;1.30;92.30;;;;;;5069532;28;20035;-72
2021/12/09 04:33:32;;;;;;;8.85;3.10;;;1.30;92.30;;;;;;5070282;28;20025;-72
2021/12/09 04:35:59;;;;;;;9.02;3.25;;;1.30;92.40;;;;;;5068126;28;20054;-72
2021/12/09 04:38:25;;;;;;;9.88;2.53;;;1.30;92.40;;;;;;5069258;28;20028;-72
2021/12/09 04:40:51;;;;;;;9.13;2.97;;;1.30;92.40;;;;;;5069156;28;20099;-72
2021/12/09 04:43:17;;;;;;;10.60;3.28;;;1.30;92.40;;;;;;5069743;28;20049;-72
2021/12/09 04:45:43;;;;;;;5.88;2.70;;;1.30;92.40;;;;;;5068687;28;20025;-72
2021/12/09 04:48:09;;;;;;;11.25;2.90;;;1.30;92.50;;;;;;5068499;28;20033;-72
2021/12/09 04:50:37;;;;;;;11.00;3.00;;;1.20;92.50;;;;;;5072402;28;20538;-72
2021/12/09 04:53:05;;;;;;;10.30;3.05;;;1.20;92.50;;;;;;5066208;28;20047;-72
2021/12/09 04:55:31;;;;;;;10.70;3.05;;;1.20;92.60;;;;;;5065577;28;20021;-71
2021/12/09 04:57:57;;;;;;;11.25;3.53;;;1.20;92.60;;;;;;5060459;28;20040;-72
2021/12/09 05:00:25;;;;;;;6.95;2.38;;;1.20;92.70;;;;;;5071056;28;20027;-72
2021/12/09 05:03:06;;;;;;;11.82;3.05;;;1.20;92.70;;;;;;5069402;28;20039;-72
2021/12/09 05:05:39;;;;;;;8.98;2.92;;;1.20;92.70;;;;;;5071383;28;20021;-72
2021/12/09 05:08:07;;;;;;;9.75;2.83;;;1.20;92.70;;;;;;5067035;28;20029;-72
2021/12/09 05:10:54;;;;;;;7.90;2.75;;;1.20;92.70;;;;;;5067919;28;20108;-72
2021/12/09 05:13:22;;;;;;;10.77;2.97;;;1.20;92.70;;;;;;5066542;28;20024;-72
2021/12/09 05:15:48;;;;;;;14.38;4.25;;;1.20;92.70;;;;;;5067562;28;20024;-72
2021/12/09 05:18:15;;;;;;;14.18;4.90;;;1.20;92.70;;;;;;5067065;28;20020;-72
2021/12/09 05:20:43;;;;;;;13.10;4.65;;;1.20;92.80;;;;;;5070052;28;20035;-72
2021/12/09 05:23:09;;;;;;;16.42;4.82;;;1.10;92.50;;;;;;5071893;28;20035;-73
2021/12/09 05:25:34;;;;;;;16.27;4.78;;;1.10;92.50;;;;;;5068307;28;20020;-72
2021/12/09 05:28:00;;;;;;;13.55;4.10;;;1.00;92.60;;;;;;5067211;28;20286;-72
2021/12/09 05:30:38;;;;;;;11.10;3.90;;;1.10;92.70;;;;;;5069345;28;20043;-72
2021/12/09 05:33:05;;;;;;;12.50;3.83;;;1.00;92.70;;;;;;5067659;28;20381;-72
2021/12/09 05:35:31;;;;;;;13.98;3.42;;;1.00;92.70;;;;;;5071064;28;20025;-70
2021/12/09 05:37:57;;;;;;;17.95;3.83;;;1.00;92.70;;;;;;5068115;28;20021;-73
2021/12/09 05:40:23;;;;;;;12.82;3.83;;;1.00;92.70;;;;;;5066418;28;20033;-72
2021/12/09 05:42:49;;;;;;;9.98;3.42;;;1.00;92.80;;;;;;5066986;28;20025;-72
2021/12/09 05:45:15;;;;;;;9.50;3.08;;;1.00;93.20;;;;;;5069108;28;20028;-71
2021/12/09 05:47:40;;;;;;;13.30;3.33;;;1.00;92.80;;;;;;5070526;28;20563;-70
2021/12/09 05:50:08;;;;;;;10.27;2.67;;;1.00;92.80;;;;;;5067459;28;20020;-70
2021/12/09 05:52:34;;;;;;;11.35;2.88;;;1.00;92.70;;;;;;5066804;28;20016;-71
2021/12/09 05:55:00;;;;;;;13.05;3.80;;;1.00;92.70;;;;;;5065405;28;20082;-71
2021/12/09 05:57:26;;;;;;;10.90;3.80;;;1.00;92.70;;;;;;5065219;28;20033;-70
2021/12/09 05:59:54;;;;;;;8.82;3.97;;;1.00;92.70;;;;;;5068683;28;20035;-71
2021/12/09 06:02:20;;;;;;;12.02;4.72;;;1.00;92.80;;;;;;5071094;28;20078;-71
2021/12/09 06:04:46;;;;;;;13.60;4.53;;;1.00;92.70;;;;;;5068106;28;20021;-71
2021/12/09 06:07:13;;;;;;;9.30;3.15;;;0.90;92.50;;;;;;5066906;28;20028;-71
2021/12/09 06:09:39;;;;;;;11.98;3.47;;;0.90;92.50;;;;;;5066798;28;20024;-71
2021/12/09 06:12:06;;;;;;;12.27;3.15;;;0.90;92.40;;;;;;5068043;28;20044;-73
2021/12/09 06:14:31;;;;;;;8.70;3.47;;;0.90;92.50;;;;;;5066751;28;20028;-72
2021/12/09 06:16:57;;;;;;;14.10;3.55;;;0.80;92.50;;;;;;5062447;28;20055;-72
2021/12/09 06:19:23;;;;;;;11.63;3.20;;;0.80;93.10;;;;;;5063040;28;20546;-73
2021/12/09 06:21:49;;;;;;;9.00;2.90;;;0.80;92.70;;;;;;5060593;28;20505;-76
2021/12/09 06:24:18;;;;;;;9.70;3.40;;;0.80;92.70;;;;;;5051933;28;20036;-79
2021/12/09 06:26:45;;;;;;;10.32;3.25;;;0.90;92.80;;;;;;5067065;28;20047;-76
2021/12/09 06:29:11;;;;;;;12.48;3.80;;;0.80;92.80;;;;;;5066735;28;20036;-75
2021/12/09 06:31:37;;;;;;;9.35;3.28;;;0.80;92.60;;;;;;5062576;28;20105;-76
2021/12/09 06:34:03;;;;;;;12.07;3.05;;;0.80;92.60;;;;;;5048709;28;20052;-75
2021/12/09 06:36:29;;;;;;;10.18;3.40;;;0.80;92.40;;;;;;5066086;28;20043;-76
2021/12/09 06:38:55;;;;;;;13.60;3.55;;;0.80;92.40;;;;;;5068151;28;20028;-75
2021/12/09 06:41:21;;;;;;;10.20;3.75;;;0.70;92.60;;;;;;5063740;28;20024;-74
2021/12/09 06:43:48;;;;;;;10.38;3.70;;;0.80;92.70;;;;;;5061278;28;20446;-73
2021/12/09 06:46:14;;;;;;;8.80;3.22;;;0.80;92.70;;;;;;5063664;28;20040;-74
2021/12/09 06:48:40;;;;;;;10.75;3.13;;;0.80;92.80;;;;;;5066120;28;20546;-73
2021/12/09 06:51:07;;;;;;;10.85;3.53;;;0.70;92.70;;;;;;5050938;28;20069;-73
2021/12/09 06:53:34;;;;;;;12.20;3.47;;;0.80;92.80;;;;;;5070177;28;20024;-73
2021/12/09 06:56:00;;;;;;;11.23;4.07;;;0.80;92.80;;;;;;5068194;28;20137;-74
2021/12/09 06:58:26;;;;;;;11.90;3.88;;;0.80;92.90;;;;;;5066179;28;20029;-73
2021/12/09 07:00:54;;;;;;;9.48;3.70;;;0.80;92.90;;;;;;5064673;28;20086;-72
2021/12/09 07:03:21;;;;;;;11.43;4.10;;;0.90;92.90;;;;;;5069983;28;20017;-73
2021/12/09 07:05:49;;;;;;;18.48;4.63;;;0.90;92.90;;;;;;5065114;28;20040;-73
2021/12/09 07:08:16;;;;;;;9.68;4.13;;;0.90;93.00;;;;;;5069781;28;20514;-72
2021/12/09 07:10:42;;;;;;;11.98;4.38;;;1.00;93.10;;;;;;5067697;28;20131;-73
2021/12/09 07:13:08;;;;;;;17.15;5.35;;;1.00;93.10;;;;;;5067187;28;20024;-73
2021/12/09 07:15:35;;;;;;;13.23;5.22;;;1.10;93.10;;;;;;5067727;28;20021;-73
2021/12/09 07:18:01;;;;;;;16.70;5.70;;;1.10;93.00;;;;;;5067841;28;20066;-73
2021/12/09 07:20:27;;;;;;;15.20;6.25;;;1.20;93.00;;;;;;5069242;28;20028;-72
2021/12/09 07:22:54;;;;;;;16.20;4.50;;;1.20;93.00;;;;;;5065953;28;20030;-72
2021/12/09 07:25:24;;;;;;;15.05;4.43;;;1.20;93.10;;;;;;5065932;28;20170;-73
2021/12/09 07:27:50;;;;;;;11.55;4.30;;;1.30;92.90;;;;;;5067331;28;20028;-73
2021/12/09 07:30:18;;;;;;;15.93;5.18;;;1.30;92.90;;;;;;5066101;28;20546;-72
2021/12/09 07:32:44;;;;;;;19.90;7.78;;;1.30;92.90;;;;;;5053842;28;20423;-71
2021/12/09 07:35:11;;;;;;;11.90;4.85;;;1.40;92.90;;;;;;5066212;28;20024;-72
2021/12/09 07:37:38;;;;;;;15.48;5.15;;;1.40;92.90;;;;;;5064365;28;20116;-72
2021/12/09 07:40:08;;;;;;;13.95;4.82;;;1.50;92.80;;;;;;5066724;28;20020;-72
2021/12/09 07:42:34;;;;;;;10.73;4.90;;;1.50;92.70;;;;;;5067153;28;20024;-73
2021/12/09 07:45:00;;;;;;;10.38;4.78;;;1.50;92.60;;;;;;5067102;28;20064;-72
2021/12/09 07:47:28;;;;;;;12.88;5.20;;;1.50;92.40;;;;;;5069012;28;20052;-74
2021/12/09 07:49:56;;;;;;;13.18;5.15;;;1.50;92.50;;;;;;5065652;28;20086;-73
2021/12/09 07:52:22;;;;;;;14.15;5.30;;;1.60;92.60;;;;;;5065601;28;20083;-72
2021/12/09 07:54:48;;;;;;;15.23;5.15;;;1.60;92.60;;;;;;5067602;28;20547;-69
2021/12/09 07:57:14;;;;;;;13.75;5.22;;;1.60;92.70;;;;;;5065323;28;20369;-70
2021/12/09 07:59:40;;;;;;;13.68;5.35;;;1.60;92.60;;;;;;5069996;28;20029;-69
2021/12/09 08:02:05;;;;;;;13.02;5.88;;;1.70;92.60;;;;;;5068877;28;20032;-70
2021/12/09 08:04:33;;;;;;;14.15;6.13;;;1.80;92.60;;;;;;5067164;28;20029;-69
2021/12/09 08:06:59;;;;;;;13.80;6.93;;;1.80;92.60;;;;;;5065649;28;20048;-69
2021/12/09 08:09:27;;;;;;;14.75;6.15;;;1.80;92.60;;;;;;5063786;28;20029;-69
2021/12/09 08:11:53;;;;;;;13.82;6.22;;;1.90;92.60;;;;;;5065536;28;20060;-71
2021/12/09 08:14:20;;;;;;;19.58;6.75;;;1.90;92.70;;;;;;5058261;28;20372;-70
2021/12/09 08:16:56;;;;;;;12.65;6.55;;;1.90;92.70;;;;;;5060203;28;20025;-68
2021/12/09 08:19:22;;;;;;;16.77;6.57;;;2.00;92.70;;;;;;5064675;28;20056;-68
2021/12/09 08:21:47;;;;;;;15.82;6.93;;;2.00;92.70;;;;;;5067696;28;20602;-71
2021/12/09 08:24:13;;;;;;;15.48;5.97;;;2.00;92.70;;;;;;5068392;28;20016;-70
2021/12/09 08:26:39;;;;;;;18.92;7.32;;;2.00;92.70;;;;;;5071115;28;20112;-68
2021/12/09 08:29:05;;;;;;;15.25;6.30;;;2.10;92.70;;;;;;5050993;28;20081;-69
2021/12/09 08:31:34;;;;;;;23.00;6.80;;;2.10;92.70;;;;;;5063561;28;20072;-68
2021/12/09 08:34:01;;;;;;;15.23;6.38;;;2.20;92.60;;;;;;5065005;28;20098;-68
2021/12/09 08:36:27;;;;;;;17.17;5.72;;;2.20;92.60;;;;;;5066637;28;20036;-69
2021/12/09 08:38:53;;;;;;;16.65;4.95;;;2.30;92.50;;;;;;5067792;28;20028;-69
2021/12/09 08:41:19;;;;;;;13.90;4.80;;;2.40;92.40;;;;;;5070275;28;20021;-67
2021/12/09 08:43:46;;;;;;;11.40;5.38;;;2.40;92.20;;;;;;5064382;28;20028;-70
2021/12/09 08:46:15;;;;;;;12.10;5.15;;;2.40;91.80;;;;;;5068286;28;20507;-71
2021/12/09 08:48:41;;;;;;;16.17;5.22;;;2.40;91.90;;;;;;5068509;28;20020;-68
2021/12/09 08:51:07;;;;;;;12.07;5.10;;;2.50;92.00;;;;;;5069934;28;20036;-70
2021/12/09 08:53:33;;;;;;;14.48;5.68;;;2.50;92.10;;;;;;5072707;28;20075;-70
2021/12/09 08:55:59;;;;;;;14.65;5.13;;;2.60;91.90;;;;;;5069307;28;20037;-70
2021/12/09 08:58:28;;;;;;;13.52;5.43;;;2.70;91.90;;;;;;5058506;28;20029;-71
2021/12/09 09:00:57;;;;;;;12.55;4.88;;;2.70;91.90;;;;;;5064232;28;20529;-71
2021/12/09 09:03:23;;;;;;;12.20;4.78;;;2.80;92.00;;;;;;5066738;28;20395;-70
2021/12/09 09:05:50;;;;;;;15.73;5.15;;;2.90;91.90;;;;;;5050706;28;20510;-71
2021/12/09 09:08:16;;;;;;;14.98;5.25;;;3.00;91.80;;;;;;5069134;28;20063;-70
2021/12/09 09:10:43;;;;;;;13.38;5.72;;;3.10;91.70;;;;;;5064606;28;20046;-70
2021/12/09 09:13:09;;;;;;;18.23;7.07;;;3.20;91.70;;;;;;5074484;28;20063;-70
2021/12/09 09:15:36;;;;;;;21.83;8.68;;;3.30;91.60;;;;;;5068034;28;20029;-71
2021/12/09 09:18:03;;;;;;;37.75;16.63;;;3.40;91.60;;;;;;5060536;28;20449;-70
2021/12/09 09:20:31;;;;;;;28.73;12.07;;;3.50;91.40;;;;;;5071702;28;20074;-70
2021/12/09 09:22:57;;;;;;;27.38;9.15;;;3.50;91.30;;;;;;5066220;28;20025;-70
2021/12/09 09:25:29;;;;;;;21.13;8.45;;;3.60;91.30;;;;;;5066871;28;20024;-70
2021/12/09 09:27:57;;;;;;;16.73;7.95;;;3.70;91.30;;;;;;5068152;28;20100;-70
2021/12/09 09:30:25;;;;;;;20.60;8.30;;;3.80;91.10;;;;;;5069433;28;20380;-70
2021/12/09 09:32:51;;;;;;;18.60;8.55;;;3.90;90.80;;;;;;5069452;28;20028;-71
2021/12/09 09:35:18;;;;;;;20.35;7.93;;;4.10;90.80;;;;;;5056764;28;20029;-71
2021/12/09 09:37:44;;;;;;;17.88;8.07;;;4.30;90.70;;;;;;5065239;28;20024;-70
2021/12/09 09:40:13;;;;;;;13.82;6.85;;;4.60;90.40;;;;;;5064814;28;20040;-70
2021/12/09 09:45:11;;;;;;;19.83;7.53;;;5.10;90.00;;;;;;5067726;28;20025;-69
2021/12/09 09:47:37;;;;;;;18.55;7.45;;;5.20;89.60;;;;;;5070628;28;20416;-70
2021/12/09 09:50:06;;;;;;;19.00;8.07;;;5.30;88.90;;;;;;5066649;28;20032;-70
2021/12/09 09:52:32;;;;;;;18.45;6.07;;;5.30;87.20;;;;;;5066615;28;20037;-69
2021/12/09 09:54:59;;;;;;;19.40;8.10;;;5.40;87.80;;;;;;5068436;28;20024;-71
2021/12/09 09:57:25;;;;;;;14.25;6.78;;;5.40;88.20;;;;;;5061813;28;20383;-72
2021/12/09 09:59:55;;;;;;;18.50;8.90;;;5.40;88.60;;;;;;5062212;28;20119;-71
2021/12/09 10:02:21;;;;;;;18.83;7.53;;;5.30;88.80;;;;;;5066151;28;20103;-71
2021/12/09 10:04:48;;;;;;;20.77;7.70;;;5.40;89.00;;;;;;5068363;28;20020;-71
2021/12/09 10:07:19;;;;;;;22.70;6.90;;;5.40;89.20;;;;;;5064448;28;20032;-71
2021/12/09 10:09:47;;;;;;;16.70;7.00;;;5.50;89.40;;;;;;5063303;28;20044;-71
2021/12/09 10:12:14;;;;;;;17.98;7.10;;;5.50;89.40;;;;;;5054769;28;20400;-71
2021/12/09 10:14:44;;;;;;;19.63;7.25;;;5.60;89.50;;;;;;5065273;28;20051;-71
2021/12/09 10:17:16;;;;;;;20.52;7.78;;;5.60;89.70;;;;;;5061782;28;20103;-71
2021/12/09 10:19:58;;;;;;;15.65;7.20;;;5.70;89.60;;;;;;5058895;28;20036;-71
2021/12/09 10:22:35;;;;;;;18.58;7.25;;;5.80;89.50;;;;;;5063220;28;20020;-71
2021/12/09 10:25:03;;;;;;;19.23;6.88;;;6.00;89.30;;;;;;5066974;28;20050;-71
2021/12/09 10:27:33;;;;;;;22.50;6.82;;;6.30;88.40;;;;;;5067050;28;20032;-72
2021/12/09 10:30:16;;;;;;;19.88;7.43;;;6.50;87.50;;;;;;5067507;28;20048;-72
2021/12/09 10:32:44;;;;;;;21.75;6.93;;;6.70;87.30;;;;;;5065706;28;20050;-71
2021/12/09 10:35:15;;;;;;;21.45;7.22;;;6.90;87.30;;;;;;5063356;28;20029;-72
2021/12/09 10:37:43;;;;;;;21.13;7.88;;;7.00;87.20;;;;;;5062744;28;20021;-72
2021/12/09 10:40:30;;;;;;;22.35;8.02;;;7.20;86.90;;;;;;5060070;28;20059;-72
2021/12/09 10:42:59;;;;;;;14.82;5.90;;;7.60;86.00;;;;;;5059424;28;20077;-72
2021/12/09 10:45:33;;;;;;;15.43;5.30;;;8.00;84.30;;;;;;5066200;28;20029;-71
2021/12/09 10:53:47;;;;;;;18.63;5.45;;;8.90;80.20;;;;;;5058979;28;20035;-71
2021/12/09 10:56:23;;;;;;;18.50;6.60;;;8.80;80.50;;;;;;5065156;28;20020;-71
2021/12/09 10:58:49;;;;;;;105.97;77.85;;;8.80;81.80;;;;;;5063127;28;20035;-72
2021/12/09 11:01:20;;;;;;;55.58;38.13;;;8.60;82.60;;;;;;5064075;28;20017;-72
2021/12/09 11:03:49;;;;;;;;;;;8.50;83.50;;;;;;5055088;28;20029;-72
2021/12/09 11:06:19;;;;;;;38.15;18.80;;;8.40;83.60;;;;;;5065715;28;19942;-71
2021/12/09 11:08:46;;;;;;;39.70;20.43;;;8.30;84.40;;;;;;5066155;28;20017;-72
2021/12/09 11:11:18;;;;;;;39.80;18.77;;;8.30;85.00;;;;;;5064180;28;20058;-72
2021/12/09 11:13:48;;;;;;;37.53;16.75;;;8.20;85.30;;;;;;5066913;28;20020;-72
2021/12/09 11:16:34;;;;;;;28.30;11.80;;;8.10;85.60;;;;;;5068209;28;20444;-71
2021/12/09 11:19:13;;;;;;;22.63;8.07;;;8.10;86.20;;;;;;5053659;28;20033;-71
2021/12/09 11:21:56;;;;;;;27.75;14.77;;;8.10;83.90;;;;;;5059256;28;20035;-70
2021/12/09 11:24:27;;;;;;;27.98;13.18;;;8.10;84.50;;;;;;5049136;28;20390;-70
2021/12/09 11:27:02;;;;;;;27.58;10.55;;;8.40;83.60;;;;;;5067771;28;20033;-71
2021/12/09 11:29:37;;;;;;;25.20;10.55;;;8.90;82.60;;;;;;5063206;28;20029;-70
2021/12/09 11:34:46;;;;;;;26.15;11.77;;;9.20;81.40;;;;;;5061705;28;20021;-70
2021/12/09 11:39:54;;;;;;;23.95;9.07;;;9.10;82.70;;;;;;5065634;28;20025;-72
2021/12/09 11:42:29;;;;;;;20.25;10.25;;;9.00;82.30;;;;;;5053151;28;20033;-69
2021/12/09 11:44:56;;;;;;;27.80;14.20;;;9.10;82.80;;;;;;5062712;28;20044;-71
2021/12/09 11:47:22;;;;;;;27.05;14.13;;;9.10;83.50;;;;;;5068459;28;20029;-69
2021/12/09 11:49:51;;;;;;;18.67;9.50;;;9.00;84.10;;;;;;5066087;28;20553;-71
2021/12/09 11:52:19;;;;;;;19.58;7.78;;;9.10;84.20;;;;;;5065238;28;20041;-72
2021/12/09 11:54:59;;;;;;;16.73;5.25;;;9.20;84.50;;;;;;5070368;28;20082;-72
2021/12/09 12:20:45;;;;;;;12.18;2.30;;;9.20;85.60;;;;;;4990105;28;20056;-70
2021/12/09 12:23:47;;;;;;;14.48;2.58;;;9.20;85.50;;;;;;4990150;28;20086;-69
2021/12/09 12:31:58;;;;;;;;;;;9.30;86.20;;;;;;4985561;28;20301;-69
2021/12/09 12:40:31;;;;;;;8.93;2.13;;;9.60;86.00;;;;;;4988738;28;20502;-71
2021/12/09 12:43:05;;;;;;;8.57;2.10;;;9.60;86.50;;;;;;4989414;28;20055;-70
2021/12/09 12:48:39;;;;;;;11.30;2.30;;;9.40;88.00;;;;;;4987419;28;20125;-71
2021/12/09 12:51:16;;;;;;;10.70;2.45;;;9.30;88.90;;;;;;5001234;28;20046;-71
2021/12/09 12:53:59;;;;;;;12.57;2.33;;;9.20;89.40;;;;;;5068789;28;20078;-71
2021/12/09 12:56:32;;;;;;;10.82;2.55;;;9.20;90.10;;;;;;5057345;28;20392;-70
2021/12/09 12:59:08;;;;;;;16.23;2.33;;;9.20;90.30;;;;;;5066669;28;20024;-71
2021/12/09 13:01:36;;;;;;;11.40;2.63;;;9.10;90.40;;;;;;5061475;28;20086;-71
2021/12/09 13:04:48;;;;;;;8.55;2.22;;;9.10;90.70;;;;;;5064425;28;20256;-70
2021/12/09 13:07:20;;;;;;;;;;;9.00;90.80;;;;;;5071181;28;20487;-70
2021/12/09 13:10:01;;;;;;;12.00;2.53;;;9.00;91.00;;;;;;5069548;28;19916;-69
2021/12/09 13:12:46;;;;;;;;;;;9.00;91.20;;;;;;5067696;28;20032;-70
2021/12/09 13:15:24;;;;;;;8.05;2.28;;;9.00;91.40;;;;;;5053197;28;19912;-71
2021/12/09 13:18:02;;;;;;;10.90;2.67;;;8.90;91.50;;;;;;5070519;28;20028;-70
2021/12/09 13:20:37;;;;;;;12.65;2.47;;;8.90;91.70;;;;;;5071322;28;20089;-73
2021/12/09 13:23:27;;;;;;;12.60;2.58;;;8.90;91.90;;;;;;5069232;28;20031;-72
2021/12/09 13:26:23;;;;;;;8.10;2.55;;;8.80;91.80;;;;;;5077340;28;20558;-72
2021/12/09 13:29:07;;;;;;;11.95;3.00;;;8.90;92.00;;;;;;5065463;28;20518;-72
2021/12/09 13:32:16;;;;;;;8.32;2.78;;;8.90;92.10;;;;;;5068177;28;20032;-71
2021/12/09 13:35:02;;;;;;;10.60;3.40;;;8.90;92.10;;;;;;5068159;28;20082;-71
2021/12/09 13:38:28;;;;;;;15.68;3.88;;;8.90;92.20;;;;;;5067143;28;20368;-71
2021/12/09 13:40:26;;;;;;;12.70;3.70;;;8.90;92.20;;;;;;5059227;28;20553;-71
2021/12/09 13:46:07;;;;;;;11.65;3.67;;;8.90;92.20;;;;;;5067832;28;20074;-72
2021/12/09 13:48:44;;;;;;;10.50;2.92;;;8.90;92.30;;;;;;5067468;28;20043;-72
2021/12/09 13:54:05;;;;;;;13.15;3.58;;;8.80;92.30;;;;;;5052472;28;20044;-72
2021/12/09 13:54:22;;;;;;;13.50;4.35;;;8.80;92.40;;;;;;5055850;28;20042;-71